Time;durP1;ratioP1;P1;durP2;ratioP2;P2;SDS_P1;SDS_P2;PMS_P1;PMS_P2;Temp;Humidity;BMP_temperature;BMP_pressure;BME280_temperature;BME280_humidity;BME280_pressure;Samples;Min_cycle;Max_cycle;Signal;HPM_P1;HPM_P2
2023/01/17 00:01:41;;;;;;;3.03;2.73;;;;;;;;;;5018364;28;20259;-80
2023/01/17 00:09:52;;;;;;;3.73;3.40;;;;;;;;;;5013881;28;20454;-79
2023/01/17 00:12:20;;;;;;;3.50;3.20;;;;;;;;;;5020479;28;20816;-80
2023/01/17 00:14:45;;;;;;;3.43;3.13;;;;;;;;;;5018462;28;20466;-79
2023/01/17 00:17:13;;;;;;;4.20;3.37;;;;;;;;;;5018346;28;20983;-79
2023/01/17 01:34:07;;;;;;;7.93;0.70;;;;;;;;;;5011136;28;20446;-79
2023/01/17 01:36:34;;;;;;;2.20;1.00;;;;;;;;;;5008588;28;20853;-78
2023/01/17 01:39:00;;;;;;;3.23;0.67;;;;;;;;;;5007370;28;20605;-78
2023/01/17 01:41:25;;;;;;;3.10;0.80;;;;;;;;;;5005439;28;20432;-78
2023/01/17 01:43:51;;;;;;;3.80;0.70;;;;;;;;;;5004213;28;20204;-78
2023/01/17 01:46:19;;;;;;;7.57;1.30;;;;;;;;;;5006997;28;20638;-77
2023/01/17 01:48:47;;;;;;;4.40;1.53;;;;;;;;;;5002934;28;20423;-77
2023/01/17 01:51:16;;;;;;;6.77;1.63;;;;;;;;;;5005348;28;20482;-77
2023/01/17 01:53:43;;;;;;;4.43;0.90;;;;;;;;;;5002327;28;20432;-78
2023/01/17 01:56:12;;;;;;;3.27;0.97;;;;;;;;;;5001867;28;20490;-79
2023/01/17 01:58:38;;;;;;;6.20;1.07;;;;;;;;;;5000950;28;20440;-79
2023/01/17 02:01:04;;;;;;;5.07;1.30;;;;;;;;;;5000892;28;20459;-78
2023/01/17 02:03:32;;;;;;;4.80;1.20;;;;;;;;;;5002498;28;20452;-77
2023/01/17 02:06:01;;;;;;;7.90;1.40;;;;;;;;;;5002904;28;20881;-77
2023/01/17 02:08:26;;;;;;;8.90;1.40;;;;;;;;;;4999264;28;20462;-78
2023/01/17 02:10:52;;;;;;;11.43;2.00;;;;;;;;;;4997171;28;20918;-78
2023/01/17 02:13:20;;;;;;;7.37;1.00;;;;;;;;;;4999769;28;20555;-78
2023/01/17 02:15:48;;;;;;;6.37;1.17;;;;;;;;;;5004913;28;20184;-79
2023/01/17 02:18:23;;;;;;;8.30;1.20;;;;;;;;;;5003505;28;20431;-78
2023/01/17 02:20:48;;;;;;;4.87;0.90;;;;;;;;;;5007718;28;20454;-78
2023/01/17 02:23:32;;;;;;;3.00;1.20;;;;;;;;;;5008429;28;20472;-78
2023/01/17 02:26:09;;;;;;;3.60;1.10;;;;;;;;;;5007480;28;20181;-77
2023/01/17 02:28:45;;;;;;;9.70;1.57;;;;;;;;;;5007290;28;20776;-78
2023/01/17 02:31:11;;;;;;;7.93;1.20;;;;;;;;;;4999182;28;21204;-78
2023/01/17 02:33:39;;;;;;;4.10;1.30;;;;;;;;;;5001568;28;20439;-78
2023/01/17 02:36:09;;;;;;;6.93;1.10;;;;;;;;;;5004136;28;20177;-78
2023/01/17 02:38:48;;;;;;;6.60;1.37;;;;;;;;;;5005688;28;20435;-77
2023/01/17 02:41:21;;;;;;;4.70;1.07;;;;;;;;;;5002046;28;20446;-79
2023/01/17 02:43:50;;;;;;;4.07;1.00;;;;;;;;;;4997575;28;21283;-78
2023/01/17 02:46:18;;;;;;;2.13;0.90;;;;;;;;;;4999824;28;20435;-79
2023/01/17 02:48:43;;;;;;;3.27;1.00;;;;;;;;;;4998234;28;20444;-79
2023/01/17 02:51:08;;;;;;;10.07;1.30;;;;;;;;;;5006024;28;20456;-78
2023/01/17 02:53:37;;;;;;;6.70;1.27;;;;;;;;;;5002430;28;20254;-79
2023/01/17 02:56:13;;;;;;;4.17;1.10;;;;;;;;;;5005754;28;20177;-79
2023/01/17 02:58:38;;;;;;;5.93;1.20;;;;;;;;;;5001520;28;20442;-78
2023/01/17 03:01:21;;;;;;;9.07;1.50;;;;;;;;;;4999637;28;20844;-79
2023/01/17 03:03:51;;;;;;;7.13;1.50;;;;;;;;;;5008959;28;20250;-78
2023/01/17 03:06:21;;;;;;;6.67;1.30;;;;;;;;;;5019701;28;20655;-78
2023/01/17 03:08:48;;;;;;;7.63;1.40;;;;;;;;;;4999087;28;20821;-78
2023/01/17 03:11:13;;;;;;;6.33;1.17;;;;;;;;;;5005666;28;20448;-78
2023/01/17 03:13:40;;;;;;;11.73;1.43;;;;;;;;;;5004685;28;20491;-78
2023/01/17 03:16:06;;;;;;;2.93;0.93;;;;;;;;;;5002859;28;20626;-78
2023/01/17 03:18:32;;;;;;;10.57;1.47;;;;;;;;;;5007779;28;20454;-78
2023/01/17 03:20:57;;;;;;;7.83;1.33;;;;;;;;;;5010688;28;20440;-78
2023/01/17 03:23:22;;;;;;;8.90;1.23;;;;;;;;;;5011776;28;20440;-79
2023/01/17 03:25:47;;;;;;;4.20;1.17;;;;;;;;;;5006766;28;20657;-78
2023/01/17 03:28:13;;;;;;;7.67;1.27;;;;;;;;;;5004662;28;20672;-79
2023/01/17 03:30:38;;;;;;;5.30;1.10;;;;;;;;;;5002482;28;20213;-78
2023/01/17 03:33:03;;;;;;;6.00;1.23;;;;;;;;;;5004472;28;20235;-78
2023/01/17 03:35:29;;;;;;;4.50;1.13;;;;;;;;;;5004747;28;20177;-78
2023/01/17 03:37:56;;;;;;;6.73;1.20;;;;;;;;;;5005440;28;20268;-78
2023/01/17 03:40:21;;;;;;;4.60;1.03;;;;;;;;;;5005222;28;20197;-77
2023/01/17 03:42:49;;;;;;;5.87;1.20;;;;;;;;;;5000356;28;20979;-77
2023/01/17 03:45:15;;;;;;;5.30;1.20;;;;;;;;;;5004839;28;20238;-78
2023/01/17 03:47:40;;;;;;;14.20;1.60;;;;;;;;;;5006681;28;20933;-78
2023/01/17 03:50:06;;;;;;;5.23;1.30;;;;;;;;;;5019850;28;20255;-78
2023/01/17 03:52:34;;;;;;;5.23;1.27;;;;;;;;;;5008529;28;20661;-78
2023/01/17 03:55:01;;;;;;;6.30;1.13;;;;;;;;;;5007252;28;20815;-78
2023/01/17 03:57:26;;;;;;;6.30;1.20;;;;;;;;;;5007379;28;21101;-78
2023/01/17 03:59:52;;;;;;;7.07;1.70;;;;;;;;;;5005842;28;20605;-77
2023/01/17 04:02:19;;;;;;;10.83;1.53;;;;;;;;;;5007126;28;20181;-78
2023/01/17 04:04:44;;;;;;;4.70;1.40;;;;;;;;;;5010589;28;20177;-78
2023/01/17 04:07:10;;;;;;;9.47;1.40;;;;;;;;;;5007590;28;20439;-79
2023/01/17 04:09:35;;;;;;;10.07;1.27;;;;;;;;;;5010057;28;20202;-78
2023/01/17 04:12:01;;;;;;;8.77;1.37;;;;;;;;;;5009220;28;20566;-79
2023/01/17 04:14:26;;;;;;;8.20;1.30;;;;;;;;;;5011794;28;20181;-78
2023/01/17 04:16:52;;;;;;;10.90;1.23;;;;;;;;;;5008017;28;20188;-78
2023/01/17 04:19:19;;;;;;;5.07;1.17;;;;;;;;;;4998587;28;20213;-78
2023/01/17 04:21:45;;;;;;;5.73;1.00;;;;;;;;;;5005699;28;20185;-78
2023/01/17 04:24:10;;;;;;;3.27;1.23;;;;;;;;;;5012509;28;21158;-79
2023/01/17 04:26:35;;;;;;;4.53;1.10;;;;;;;;;;5008646;28;20884;-78
2023/01/17 04:29:01;;;;;;;3.57;1.20;;;;;;;;;;5013024;28;20181;-79
2023/01/17 04:31:26;;;;;;;6.97;1.23;;;;;;;;;;5011217;28;20227;-79
2023/01/17 04:33:51;;;;;;;4.50;0.90;;;;;;;;;;5017347;28;20177;-79
2023/01/17 04:36:16;;;;;;;4.10;0.90;;;;;;;;;;5012670;28;20252;-78
2023/01/17 04:38:42;;;;;;;2.43;0.80;;;;;;;;;;5009899;28;20177;-80
2023/01/17 04:41:07;;;;;;;4.33;0.83;;;;;;;;;;5009152;28;20251;-78
2023/01/17 04:43:33;;;;;;;5.60;1.00;;;;;;;;;;5007532;28;20233;-78
2023/01/17 04:45:59;;;;;;;3.70;1.30;;;;;;;;;;5008565;28;20215;-79
2023/01/17 04:48:24;;;;;;;2.30;0.80;;;;;;;;;;5005686;28;20932;-78
2023/01/17 04:50:50;;;;;;;4.70;0.90;;;;;;;;;;5005596;28;20235;-79
2023/01/17 04:53:15;;;;;;;7.00;1.07;;;;;;;;;;5006444;28;20200;-79
2023/01/17 04:55:43;;;;;;;5.23;1.20;;;;;;;;;;5024184;28;20181;-80
2023/01/17 04:58:11;;;;;;;3.80;0.90;;;;;;;;;;5004947;28;20198;-78
2023/01/17 05:00:36;;;;;;;1.37;0.90;;;;;;;;;;5027251;28;20470;-78
2023/01/17 05:03:02;;;;;;;8.87;1.43;;;;;;;;;;5005109;28;20463;-78
2023/01/17 05:05:27;;;;;;;6.50;1.27;;;;;;;;;;5005634;28;20188;-79
2023/01/17 05:07:53;;;;;;;9.00;1.67;;;;;;;;;;5004425;28;20173;-78
2023/01/17 05:10:18;;;;;;;2.40;0.90;;;;;;;;;;5007832;28;20192;-79
2023/01/17 05:12:51;;;;;;;4.47;1.37;;;;;;;;;;5010216;28;20440;-78
2023/01/17 05:15:16;;;;;;;7.50;1.30;;;;;;;;;;5007598;28;20188;-78
2023/01/17 05:17:42;;;;;;;4.20;0.90;;;;;;;;;;5011497;28;20439;-78
2023/01/17 05:20:08;;;;;;;8.03;1.53;;;;;;;;;;5009850;28;20208;-78
2023/01/17 05:22:33;;;;;;;5.03;1.10;;;;;;;;;;5011175;28;20177;-79
2023/01/17 05:24:58;;;;;;;3.63;1.10;;;;;;;;;;5010171;28;20252;-79
2023/01/17 05:27:23;;;;;;;4.77;1.50;;;;;;;;;;5015475;28;20233;-79
2023/01/17 05:29:49;;;;;;;4.57;1.20;;;;;;;;;;5010245;28;20204;-79
2023/01/17 05:32:14;;;;;;;4.10;1.30;;;;;;;;;;5015228;28;20242;-78
2023/01/17 05:34:39;;;;;;;6.47;1.17;;;;;;;;;;5016761;28;20561;-79
2023/01/17 05:37:05;;;;;;;8.47;1.70;;;;;;;;;;5017467;28;20185;-80
2023/01/17 05:39:30;;;;;;;4.60;0.93;;;;;;;;;;5018497;28;20260;-78
2023/01/17 05:41:55;;;;;;;5.70;1.30;;;;;;;;;;5018457;28;20193;-80
2023/01/17 05:44:21;;;;;;;30.80;2.53;;;;;;;;;;5019393;28;20200;-78
2023/01/17 05:46:46;;;;;;;6.30;1.60;;;;;;;;;;5009577;28;20173;-78
2023/01/17 05:49:11;;;;;;;10.33;1.30;;;;;;;;;;5012085;28;20209;-78
2023/01/17 05:51:38;;;;;;;4.00;1.23;;;;;;;;;;5018369;28;20212;-80
2023/01/17 05:54:04;;;;;;;3.13;0.90;;;;;;;;;;5020621;28;20276;-79
2023/01/17 05:56:29;;;;;;;4.70;1.17;;;;;;;;;;5018487;28;20860;-80
2023/01/17 05:58:54;;;;;;;2.50;0.80;;;;;;;;;;5020392;28;20192;-80
2023/01/17 06:01:20;;;;;;;6.13;0.97;;;;;;;;;;5017531;28;20189;-79
2023/01/17 06:03:45;;;;;;;3.03;0.80;;;;;;;;;;5024869;22;20606;-77
2023/01/17 06:06:10;;;;;;;2.50;0.90;;;;;;;;;;5024295;28;20180;-78
2023/01/17 06:08:36;;;;;;;1.70;0.70;;;;;;;;;;5023178;28;20188;-74
2023/01/17 06:11:01;;;;;;;6.60;1.10;;;;;;;;;;5023693;28;20252;-76
2023/01/17 06:13:26;;;;;;;3.73;0.90;;;;;;;;;;5025961;28;20688;-75
2023/01/17 06:15:52;;;;;;;4.43;0.90;;;;;;;;;;5023764;28;21265;-74
2023/01/17 06:18:17;;;;;;;3.13;1.00;;;;;;;;;;5018331;28;20192;-75
2023/01/17 06:20:43;;;;;;;3.97;1.03;;;;;;;;;;5016110;28;20630;-76
2023/01/17 06:23:12;;;;;;;6.87;1.27;;;;;;;;;;5016294;28;20223;-74
2023/01/17 06:25:39;;;;;;;7.20;0.90;;;;;;;;;;5020246;28;20439;-76
2023/01/17 06:28:07;;;;;;;4.53;1.50;;;;;;;;;;5023610;28;20427;-76
2023/01/17 06:30:32;;;;;;;5.60;1.00;;;;;;;;;;5020897;28;20813;-75
2023/01/17 06:32:58;;;;;;;4.13;0.97;;;;;;;;;;5021992;28;20454;-75
2023/01/17 06:35:25;;;;;;;5.57;1.07;;;;;;;;;;5020279;28;20227;-78
2023/01/17 06:37:51;;;;;;;2.90;0.90;;;;;;;;;;5020444;28;20920;-76
2023/01/17 06:40:16;;;;;;;6.93;0.90;;;;;;;;;;5023656;28;20553;-72
2023/01/17 06:42:42;;;;;;;2.60;0.70;;;;;;;;;;5015884;28;20475;-75
2023/01/17 06:45:07;;;;;;;4.83;1.10;;;;;;;;;;5017679;28;20564;-76
2023/01/17 06:47:36;;;;;;;3.10;0.90;;;;;;;;;;5016908;28;20216;-78
2023/01/17 06:50:02;;;;;;;4.23;0.90;;;;;;;;;;5022844;28;20546;-78
2023/01/17 06:52:27;;;;;;;7.17;1.00;;;;;;;;;;5025714;28;20473;-74
2023/01/17 06:54:55;;;;;;;4.97;1.23;;;;;;;;;;5021972;28;20189;-75
2023/01/17 06:57:20;;;;;;;4.07;0.97;;;;;;;;;;5026732;28;20208;-75
2023/01/17 06:59:46;;;;;;;6.30;1.47;;;;;;;;;;5023080;28;21480;-76
2023/01/17 07:02:11;;;;;;;2.37;1.20;;;;;;;;;;5014298;28;20745;-75
2023/01/17 07:04:37;;;;;;;8.60;1.13;;;;;;;;;;5019157;28;20470;-75
2023/01/17 07:07:02;;;;;;;3.23;0.80;;;;;;;;;;5014750;28;20238;-76
2023/01/17 07:09:27;;;;;;;2.80;0.90;;;;;;;;;;5015089;28;20180;-75
2023/01/17 07:11:58;;;;;;;6.37;1.27;;;;;;;;;;5023143;28;20201;-78
2023/01/17 07:14:23;;;;;;;6.67;1.10;;;;;;;;;;5024752;28;20176;-76
2023/01/17 07:16:49;;;;;;;4.30;1.00;;;;;;;;;;5026930;28;20428;-75
2023/01/17 07:19:14;;;;;;;5.10;0.90;;;;;;;;;;5022689;28;20193;-74
2023/01/17 07:21:43;;;;;;;16.53;1.87;;;;;;;;;;5024232;28;20191;-76
2023/01/17 07:24:08;;;;;;;5.33;1.03;;;;;;;;;;5026702;28;20196;-75
2023/01/17 07:26:36;;;;;;;3.70;1.17;;;;;;;;;;5022627;28;20446;-76
2023/01/17 07:29:02;;;;;;;4.30;1.10;;;;;;;;;;5021442;28;20238;-76
2023/01/17 07:31:28;;;;;;;4.70;0.93;;;;;;;;;;5026037;28;20418;-74
2023/01/17 07:33:53;;;;;;;3.30;0.97;;;;;;;;;;5024189;28;20489;-76
2023/01/17 07:36:18;;;;;;;5.47;0.83;;;;;;;;;;5028025;28;20268;-77
2023/01/17 07:38:45;;;;;;;4.30;0.80;;;;;;;;;;5025168;28;20275;-75
2023/01/17 07:41:13;;;;;;;7.03;1.67;;;;;;;;;;5028404;28;20283;-78
2023/01/17 07:43:39;;;;;;;4.13;0.90;;;;;;;;;;5025348;28;20474;-77
2023/01/17 07:46:05;;;;;;;3.10;1.10;;;;;;;;;;5025164;28;20826;-75
2023/01/17 07:48:30;;;;;;;3.93;1.50;;;;;;;;;;5027864;28;20641;-76
2023/01/17 07:50:56;;;;;;;5.60;1.77;;;;;;;;;;5025797;28;20431;-76
2023/01/17 07:53:22;;;;;;;6.90;2.30;;;;;;;;;;5029388;28;20282;-78
2023/01/17 07:55:48;;;;;;;3.67;1.23;;;;;;;;;;5021765;28;20458;-75
2023/01/17 07:58:13;;;;;;;3.30;1.20;;;;;;;;;;5018921;28;20525;-76
2023/01/17 08:00:41;;;;;;;4.00;1.00;;;;;;;;;;5005467;28;20184;-74
2023/01/17 08:03:10;;;;;;;3.73;0.90;;;;;;;;;;5013395;28;20216;-75
2023/01/17 08:05:36;;;;;;;3.50;1.00;;;;;;;;;;5010126;28;20453;-76
2023/01/17 08:08:01;;;;;;;3.13;0.80;;;;;;;;;;5022617;28;24062;-75
2023/01/17 08:10:26;;;;;;;3.37;0.90;;;;;;;;;;5022574;28;20290;-78
2023/01/17 08:12:52;;;;;;;3.13;1.07;;;;;;;;;;5018484;28;20212;-76
2023/01/17 08:15:17;;;;;;;1.80;0.80;;;;;;;;;;5020223;28;20185;-76
2023/01/17 08:17:46;;;;;;;3.53;0.90;;;;;;;;;;5023698;28;20720;-76
2023/01/17 08:20:12;;;;;;;3.00;1.07;;;;;;;;;;5028649;28;20177;-76
2023/01/17 08:22:37;;;;;;;2.00;0.80;;;;;;;;;;5027839;28;20443;-77
2023/01/17 08:25:03;;;;;;;4.43;0.90;;;;;;;;;;5024876;28;20570;-75
2023/01/17 08:27:28;;;;;;;5.57;0.80;;;;;;;;;;5026063;28;20207;-76
2023/01/17 08:29:54;;;;;;;2.73;0.90;;;;;;;;;;5025431;28;20271;-72
2023/01/17 08:32:20;;;;;;;7.03;1.43;;;;;;;;;;5027482;28;20196;-75
2023/01/17 08:34:45;;;;;;;2.60;0.70;;;;;;;;;;5024464;28;20250;-77
2023/01/17 08:37:11;;;;;;;2.53;0.80;;;;;;;;;;5021968;28;20435;-76
2023/01/17 08:39:36;;;;;;;3.63;0.80;;;;;;;;;;5022082;28;20676;-74
2023/01/17 08:42:02;;;;;;;0.60;0.47;;;;;;;;;;5025337;28;20322;-78
2023/01/17 08:44:27;;;;;;;1.53;1.00;;;;;;;;;;5029631;28;20234;-75
2023/01/17 08:46:52;;;;;;;1.83;0.60;;;;;;;;;;5013422;28;20184;-75
2023/01/17 08:49:18;;;;;;;0.80;0.60;;;;;;;;;;5027483;28;20176;-77
2023/01/17 08:51:43;;;;;;;1.47;0.73;;;;;;;;;;5028846;28;20172;-78
2023/01/17 08:54:11;;;;;;;2.13;0.70;;;;;;;;;;5023010;28;20188;-76
2023/01/17 08:56:36;;;;;;;1.73;0.80;;;;;;;;;;5022140;28;20195;-75
2023/01/17 08:59:02;;;;;;;3.73;0.63;;;;;;;;;;5023420;28;20432;-77
2023/01/17 09:01:27;;;;;;;2.50;0.77;;;;;;;;;;5024675;28;20200;-74
2023/01/17 09:03:52;;;;;;;5.23;0.97;;;;;;;;;;5020215;28;20684;-75
2023/01/17 09:06:18;;;;;;;1.57;0.70;;;;;;;;;;5015820;28;20677;-73
2023/01/17 09:08:45;;;;;;;0.80;0.60;;;;;;;;;;5021303;28;20306;-76
2023/01/17 09:11:12;;;;;;;1.90;0.60;;;;;;;;;;5022884;28;20176;-74
2023/01/17 09:13:37;;;;;;;0.83;0.60;;;;;;;;;;5019688;28;20447;-75
2023/01/17 09:16:03;;;;;;;1.07;0.70;;;;;;;;;;5023734;28;20966;-75
2023/01/17 09:18:29;;;;;;;1.93;0.80;;;;;;;;;;5023688;28;20184;-76
2023/01/17 09:20:56;;;;;;;1.23;0.80;;;;;;;;;;5022951;28;20546;-75
2023/01/17 09:23:22;;;;;;;1.23;0.50;;;;;;;;;;5022059;28;20466;-76
2023/01/17 09:25:53;;;;;;;1.33;0.70;;;;;;;;;;5025084;28;20431;-76
2023/01/17 09:28:19;;;;;;;1.33;0.70;;;;;;;;;;5024501;28;20740;-76
2023/01/17 09:30:44;;;;;;;2.30;0.70;;;;;;;;;;5017372;28;20427;-76
2023/01/17 09:33:10;;;;;;;3.33;0.70;;;;;;;;;;5023400;28;20512;-75
2023/01/17 09:35:35;;;;;;;1.53;0.60;;;;;;;;;;5024108;28;20172;-76
2023/01/17 09:38:00;;;;;;;1.53;0.73;;;;;;;;;;5022524;28;20192;-75
2023/01/17 09:40:26;;;;;;;5.83;0.60;;;;;;;;;;5025899;28;20184;-78
2023/01/17 09:42:54;;;;;;;1.57;0.60;;;;;;;;;;5022405;28;20266;-76
2023/01/17 09:45:19;;;;;;;2.60;0.67;;;;;;;;;;5020474;28;20187;-76
2023/01/17 09:47:47;;;;;;;6.03;0.87;;;;;;;;;;5024288;28;20435;-75
2023/01/17 09:50:19;;;;;;;5.60;0.70;;;;;;;;;;5021988;28;20183;-75
2023/01/17 09:52:44;;;;;;;1.17;0.87;;;;;;;;;;5024206;28;20450;-76
2023/01/17 09:55:13;;;;;;;2.90;0.70;;;;;;;;;;5017049;28;23928;-75
2023/01/17 09:57:46;;;;;;;2.30;0.87;;;;;;;;;;5020116;28;20184;-75
2023/01/17 10:00:23;;;;;;;3.13;0.80;;;;;;;;;;5016218;28;21242;-75
2023/01/17 10:03:04;;;;;;;1.93;0.67;;;;;;;;;;5025310;28;20471;-75
2023/01/17 10:05:36;;;;;;;1.80;0.70;;;;;;;;;;5018047;28;20438;-76
2023/01/17 10:08:20;;;;;;;1.60;0.80;;;;;;;;;;5015824;28;20499;-75
2023/01/17 10:10:52;;;;;;;3.07;0.83;;;;;;;;;;5015291;28;20425;-75
2023/01/17 10:13:18;;;;;;;2.77;0.90;;;;;;;;;;5015441;28;20486;-75
2023/01/17 10:15:48;;;;;;;4.40;1.07;;;;;;;;;;5019688;28;20546;-74
2023/01/17 10:18:25;;;;;;;4.57;0.80;;;;;;;;;;5023370;28;20177;-74
2023/01/17 10:20:51;;;;;;;5.50;1.47;;;;;;;;;;5023024;28;20430;-75
2023/01/17 10:23:16;;;;;;;4.83;1.57;;;;;;;;;;5020816;28;20478;-76
2023/01/17 10:25:50;;;;;;;2.67;1.53;;;;;;;;;;5026240;28;20207;-75
2023/01/17 10:28:17;;;;;;;4.70;1.30;;;;;;;;;;5021332;28;20198;-74
2023/01/17 10:30:49;;;;;;;5.50;1.20;;;;;;;;;;5019170;28;20431;-76
2023/01/17 10:33:25;;;;;;;3.60;0.90;;;;;;;;;;5020889;28;20524;-75
2023/01/17 10:35:58;;;;;;;3.90;1.03;;;;;;;;;;5025400;28;20458;-74
2023/01/17 10:38:31;;;;;;;3.67;1.10;;;;;;;;;;5020699;28;20430;-74
2023/01/17 10:41:03;;;;;;;2.47;1.07;;;;;;;;;;5022844;28;20809;-75
2023/01/17 10:43:44;;;;;;;2.10;0.60;;;;;;;;;;5008400;28;20470;-75
2023/01/17 10:46:14;;;;;;;1.43;0.60;;;;;;;;;;5015551;28;20434;-75
2023/01/17 10:48:45;;;;;;;5.20;0.70;;;;;;;;;;5007157;28;20466;-76
2023/01/17 10:51:29;;;;;;;1.47;0.60;;;;;;;;;;5013441;28;20454;-76
2023/01/17 10:53:54;;;;;;;1.13;0.60;;;;;;;;;;5013197;28;20419;-74
2023/01/17 10:56:22;;;;;;;1.90;0.63;;;;;;;;;;5014852;28;20434;-75
2023/01/17 10:59:01;;;;;;;2.93;0.60;;;;;;;;;;5020448;28;20230;-75
2023/01/17 11:01:26;;;;;;;1.37;0.60;;;;;;;;;;5023136;28;20434;-76
2023/01/17 11:03:54;;;;;;;1.30;0.53;;;;;;;;;;5011025;28;20479;-78
2023/01/17 11:06:21;;;;;;;1.77;0.70;;;;;;;;;;5021806;28;20173;-76
2023/01/17 11:08:52;;;;;;;1.07;0.53;;;;;;;;;;5017791;28;20433;-76
2023/01/17 11:11:19;;;;;;;3.00;0.90;;;;;;;;;;5023510;28;20500;-74
2023/01/17 11:13:46;;;;;;;2.90;0.83;;;;;;;;;;5021988;28;20454;-75
2023/01/17 11:16:22;;;;;;;1.90;0.70;;;;;;;;;;5023381;28;20430;-76
2023/01/17 11:19:04;;;;;;;1.00;0.63;;;;;;;;;;5024481;28;20443;-74
2023/01/17 11:21:29;;;;;;;1.90;0.70;;;;;;;;;;5028153;28;20430;-75
2023/01/17 11:23:58;;;;;;;1.50;0.73;;;;;;;;;;5013087;28;20466;-75
2023/01/17 11:26:25;;;;;;;1.77;0.70;;;;;;;;;;5029203;28;20238;-73
2023/01/17 11:28:51;;;;;;;2.30;0.80;;;;;;;;;;5019454;28;20423;-74
2023/01/17 11:31:16;;;;;;;4.77;0.70;;;;;;;;;;5024333;28;20433;-76
2023/01/17 11:33:46;;;;;;;1.53;0.50;;;;;;;;;;5020348;28;20447;-74
2023/01/17 11:36:26;;;;;;;1.97;1.00;;;;;;;;;;5017749;28;20192;-77
2023/01/17 11:38:57;;;;;;;1.67;0.60;;;;;;;;;;5024966;28;20426;-75
2023/01/17 11:41:23;;;;;;;4.30;0.63;;;;;;;;;;5016080;28;20439;-75
2023/01/17 11:43:53;;;;;;;1.40;0.80;;;;;;;;;;5021628;28;20470;-75
2023/01/17 11:46:19;;;;;;;1.20;0.87;;;;;;;;;;5026732;28;20430;-74
2023/01/17 11:48:51;;;;;;;1.63;0.60;;;;;;;;;;5019810;28;20431;-72
2023/01/17 11:51:21;;;;;;;0.70;0.60;;;;;;;;;;5026934;28;20184;-75
2023/01/17 11:53:47;;;;;;;1.93;0.70;;;;;;;;;;5023427;28;20454;-74
2023/01/17 11:56:29;;;;;;;2.70;0.70;;;;;;;;;;5029079;28;20426;-74
2023/01/17 11:59:13;;;;;;;1.63;0.60;;;;;;;;;;5025485;28;20439;-74
2023/01/17 12:01:39;;;;;;;3.70;0.73;;;;;;;;;;5028037;28;20441;-75
2023/01/17 12:04:16;;;;;;;4.63;0.90;;;;;;;;;;5021599;28;20458;-73
2023/01/17 12:07:01;;;;;;;3.20;0.90;;;;;;;;;;5028447;28;20191;-74
2023/01/17 12:09:29;;;;;;;2.90;0.70;;;;;;;;;;5027885;28;20418;-74
2023/01/17 12:15:00;;;;;;;1.60;0.60;;;;;;;;;;5026500;28;20472;-73
2023/01/17 12:17:33;;;;;;;4.80;0.80;;;;;;;;;;5023797;28;20431;-74
2023/01/17 12:20:00;;;;;;;2.27;0.80;;;;;;;;;;5025370;28;20939;-73
2023/01/17 12:22:40;;;;;;;2.57;0.97;;;;;;;;;;5019016;28;20966;-73
2023/01/17 12:25:24;;;;;;;1.37;0.67;;;;;;;;;;5024467;28;20445;-73
2023/01/17 12:28:10;;;;;;;2.33;0.70;;;;;;;;;;5007547;28;20435;-74
2023/01/17 12:30:35;;;;;;;2.80;0.70;;;;;;;;;;5018878;28;20434;-77
2023/01/17 12:33:10;;;;;;;6.57;0.83;;;;;;;;;;5022610;28;21027;-74
2023/01/17 12:35:46;;;;;;;1.87;0.70;;;;;;;;;;5020050;28;20176;-74
2023/01/17 12:38:14;;;;;;;1.80;0.70;;;;;;;;;;5015952;28;20461;-74
2023/01/17 12:40:45;;;;;;;5.90;0.80;;;;;;;;;;5020167;28;20516;-73
2023/01/17 12:43:40;;;;;;;3.23;1.07;;;;;;;;;;5024180;28;20550;-73
2023/01/17 12:46:11;;;;;;;1.97;0.83;;;;;;;;;;5018586;28;20446;-74
2023/01/17 12:48:38;;;;;;;3.80;1.20;;;;;;;;;;5024801;28;20471;-75
2023/01/17 12:51:17;;;;;;;1.53;0.80;;;;;;;;;;5023134;28;20438;-74
2023/01/17 12:53:49;;;;;;;3.27;1.23;;;;;;;;;;5025082;28;21768;-74
2023/01/17 12:56:24;;;;;;;2.93;0.93;;;;;;;;;;5021935;28;20419;-75
2023/01/17 12:58:51;;;;;;;5.10;1.23;;;;;;;;;;5021797;28;20429;-76
2023/01/17 13:01:28;;;;;;;6.80;1.23;;;;;;;;;;5021004;28;20501;-76
2023/01/17 13:04:06;;;;;;;4.53;1.20;;;;;;;;;;5020064;28;20467;-73
2023/01/17 13:06:43;;;;;;;4.50;1.07;;;;;;;;;;5026623;28;20459;-74
2023/01/17 13:09:11;;;;;;;3.97;0.90;;;;;;;;;;5025298;28;20855;-75
2023/01/17 13:11:42;;;;;;;2.70;1.17;;;;;;;;;;5024226;28;20485;-75
2023/01/17 13:14:08;;;;;;;5.00;1.30;;;;;;;;;;5021656;28;20458;-74
2023/01/17 13:16:36;;;;;;;4.50;1.13;;;;;;;;;;5024284;28;21069;-74
2023/01/17 13:19:07;;;;;;;4.67;1.60;;;;;;;;;;5011400;28;20203;-75
2023/01/17 13:21:34;;;;;;;11.43;1.27;;;;;;;;;;5023268;28;20828;-75
2023/01/17 13:24:02;;;;;;;2.73;0.93;;;;;;;;;;5014850;28;20537;-75
2023/01/17 13:26:38;;;;;;;2.23;0.93;;;;;;;;;;5022254;28;20430;-74
2023/01/17 13:29:10;;;;;;;5.83;1.20;;;;;;;;;;5020659;28;20466;-75
2023/01/17 13:31:47;;;;;;;7.50;1.50;;;;;;;;;;5021794;28;20418;-75
2023/01/17 13:34:24;;;;;;;4.93;1.17;;;;;;;;;;5010584;28;20442;-77
2023/01/17 13:37:08;;;;;;;1.97;1.33;;;;;;;;;;5007230;28;20437;-76
2023/01/17 13:39:36;;;;;;;3.70;1.23;;;;;;;;;;5038235;28;20434;-74
2023/01/17 13:42:09;;;;;;;2.30;0.80;;;;;;;;;;5024583;28;20465;-75
2023/01/17 13:44:35;;;;;;;3.07;1.10;;;;;;;;;;5016712;28;20481;-76
2023/01/17 13:47:03;;;;;;;4.10;1.00;;;;;;;;;;5025180;28;20431;-74
2023/01/17 13:49:28;;;;;;;2.50;1.10;;;;;;;;;;5022407;28;20435;-74
2023/01/17 13:52:02;;;;;;;4.67;1.47;;;;;;;;;;5020298;28;20826;-74
2023/01/17 13:54:30;;;;;;;3.77;1.53;;;;;;;;;;5025143;28;20306;-76
2023/01/17 13:57:15;;;;;;;5.13;1.60;;;;;;;;;;5022740;28;20435;-75
2023/01/17 13:59:40;;;;;;;5.37;1.10;;;;;;;;;;5021972;28;20443;-76
2023/01/17 14:02:25;;;;;;;4.73;1.17;;;;;;;;;;5017133;28;20462;-76
2023/01/17 14:05:09;;;;;;;3.37;1.10;;;;;;;;;;5024002;28;20202;-74
2023/01/17 14:07:41;;;;;;;2.40;1.20;;;;;;;;;;5035223;28;20556;-77
2023/01/17 14:10:19;;;;;;;3.23;1.00;;;;;;;;;;5023025;28;20427;-75
2023/01/17 14:12:44;;;;;;;3.63;0.90;;;;;;;;;;5021040;28;20454;-74
2023/01/17 14:15:18;;;;;;;5.83;1.30;;;;;;;;;;5021975;28;20433;-74
2023/01/17 14:17:47;;;;;;;3.33;1.03;;;;;;;;;;5023355;28;20676;-76
2023/01/17 14:20:14;;;;;;;3.83;1.20;;;;;;;;;;5020050;28;20439;-76
2023/01/17 14:22:52;;;;;;;2.50;1.00;;;;;;;;;;5021303;28;20439;-74
2023/01/17 14:25:28;;;;;;;3.90;1.00;;;;;;;;;;5022155;28;20817;-75
2023/01/17 14:27:58;;;;;;;3.77;1.00;;;;;;;;;;5023164;28;20431;-74
2023/01/17 14:30:35;;;;;;;3.10;0.80;;;;;;;;;;5034466;28;20524;-74
2023/01/17 14:33:00;;;;;;;3.30;1.20;;;;;;;;;;5023517;28;20839;-74
2023/01/17 14:35:46;;;;;;;3.07;0.90;;;;;;;;;;5024294;28;20451;-75
2023/01/17 14:38:17;;;;;;;10.27;1.10;;;;;;;;;;5021769;28;20193;-74
2023/01/17 14:40:48;;;;;;;1.53;0.73;;;;;;;;;;5023808;28;20435;-77
2023/01/17 14:43:20;;;;;;;1.97;0.97;;;;;;;;;;5024353;28;20474;-78
2023/01/17 14:45:46;;;;;;;5.73;1.10;;;;;;;;;;5023363;28;20439;-77
2023/01/17 14:48:14;;;;;;;8.13;1.40;;;;;;;;;;5023371;28;20438;-75
2023/01/17 14:50:41;;;;;;;3.83;1.00;;;;;;;;;;5020170;28;20184;-75
2023/01/17 14:53:12;;;;;;;4.50;1.07;;;;;;;;;;5023036;28;20462;-77
2023/01/17 14:55:47;;;;;;;3.67;1.00;;;;;;;;;;5025548;28;20446;-74
2023/01/17 14:58:16;;;;;;;2.10;0.80;;;;;;;;;;5023542;28;20951;-75
2023/01/17 15:00:42;;;;;;;3.43;1.10;;;;;;;;;;5019607;28;20450;-75
2023/01/17 15:03:10;;;;;;;1.90;0.80;;;;;;;;;;5021467;28;20474;-76
2023/01/17 15:05:39;;;;;;;2.03;0.80;;;;;;;;;;5018895;28;20185;-74
2023/01/17 15:08:12;;;;;;;2.37;0.93;;;;;;;;;;5022349;28;20487;-74
2023/01/17 15:10:43;;;;;;;4.50;0.90;;;;;;;;;;5022130;28;20518;-75
2023/01/17 15:13:09;;;;;;;1.50;0.80;;;;;;;;;;5016739;28;20466;-75
2023/01/17 15:15:39;;;;;;;5.20;0.90;;;;;;;;;;5019320;28;20431;-76
2023/01/17 15:18:07;;;;;;;1.00;0.60;;;;;;;;;;5021569;28;20216;-75
2023/01/17 15:20:33;;;;;;;1.73;1.07;;;;;;;;;;5026175;22;20506;-80
2023/01/17 15:22:58;;;;;;;4.97;1.03;;;;;;;;;;5031722;28;20564;-80
2023/01/17 15:25:24;;;;;;;2.13;0.90;;;;;;;;;;5030294;28;21113;-81
2023/01/17 15:27:51;;;;;;;4.80;0.60;;;;;;;;;;5032432;28;20187;-79
2023/01/17 15:30:17;;;;;;;2.63;0.90;;;;;;;;;;5031886;28;20220;-80
2023/01/17 15:32:46;;;;;;;3.57;0.83;;;;;;;;;;5031388;28;20470;-80
2023/01/17 15:35:18;;;;;;;1.10;0.80;;;;;;;;;;5024747;28;20201;-80
2023/01/17 15:37:43;;;;;;;2.60;0.87;;;;;;;;;;5025585;28;20912;-80
2023/01/17 15:40:21;;;;;;;2.10;0.70;;;;;;;;;;5036028;28;20428;-80
2023/01/17 15:42:49;;;;;;;3.30;0.70;;;;;;;;;;5029466;28;20172;-79
2023/01/17 15:45:19;;;;;;;1.60;0.80;;;;;;;;;;5032154;28;20504;-79
2023/01/17 15:47:44;;;;;;;3.63;1.70;;;;;;;;;;5028590;28;20415;-79
2023/01/17 15:50:19;;;;;;;2.83;0.70;;;;;;;;;;5031198;28;20431;-79
2023/01/17 15:52:51;;;;;;;10.33;1.07;;;;;;;;;;5028679;28;20184;-79
2023/01/17 15:55:27;;;;;;;1.87;0.80;;;;;;;;;;5030953;28;20461;-80
2023/01/17 15:57:52;;;;;;;2.83;1.23;;;;;;;;;;5033769;28;20399;-79
2023/01/17 16:00:20;;;;;;;4.90;1.87;;;;;;;;;;5033607;28;21179;-80
2023/01/17 16:02:45;;;;;;;2.80;1.30;;;;;;;;;;5030474;28;20174;-79
2023/01/17 16:05:32;;;;;;;2.00;1.00;;;;;;;;;;5033464;28;20423;-80
2023/01/17 16:08:05;;;;;;;2.93;1.00;;;;;;;;;;5035773;28;20235;-80
2023/01/17 16:10:36;;;;;;;3.20;1.47;;;;;;;;;;5034752;28;20435;-79
2023/01/17 16:13:06;;;;;;;2.93;1.40;;;;;;;;;;5043180;28;20795;-80
2023/01/17 16:15:34;;;;;;;2.80;1.90;;;;;;;;;;5046374;28;20427;-80